sensor_id;sensor_type;location;lat;lon;timestamp;P1;durP1;ratioP1;P2;durP2;ratioP2
20611;SDS011;10465;42.686;23.364;2023-04-25T00:00:32;3.00;;;2.60;;
20611;SDS011;10465;42.686;23.364;2023-04-25T00:02:57;3.13;;;2.83;;
20611;SDS011;10465;42.686;23.364;2023-04-25T00:05:25;5.03;;;2.90;;
20611;SDS011;10465;42.686;23.364;2023-04-25T00:07:54;3.58;;;3.00;;
20611;SDS011;10465;42.686;23.364;2023-04-25T00:10:20;3.40;;;2.97;;
20611;SDS011;10465;42.686;23.364;2023-04-25T00:12:45;4.10;;;3.40;;
20611;SDS011;10465;42.686;23.364;2023-04-25T00:15:11;3.90;;;3.10;;
20611;SDS011;10465;42.686;23.364;2023-04-25T00:17:37;5.63;;;4.15;;
20611;SDS011;10465;42.686;23.364;2023-04-25T00:20:03;6.75;;;4.80;;
20611;SDS011;10465;42.686;23.364;2023-04-25T00:22:30;7.70;;;4.90;;
20611;SDS011;10465;42.686;23.364;2023-04-25T00:24:56;6.97;;;4.75;;
20611;SDS011;10465;42.686;23.364;2023-04-25T00:27:25;5.45;;;4.13;;
20611;SDS011;10465;42.686;23.364;2023-04-25T00:29:50;6.38;;;3.67;;
20611;SDS011;10465;42.686;23.364;2023-04-25T00:32:16;4.22;;;3.78;;
20611;SDS011;10465;42.686;23.364;2023-04-25T00:34:41;5.38;;;3.42;;
20611;SDS011;10465;42.686;23.364;2023-04-25T00:37:07;4.35;;;3.60;;
20611;SDS011;10465;42.686;23.364;2023-04-25T00:39:32;4.10;;;3.53;;
20611;SDS011;10465;42.686;23.364;2023-04-25T00:41:58;5.38;;;3.95;;
20611;SDS011;10465;42.686;23.364;2023-04-25T00:44:24;5.38;;;3.80;;
20611;SDS011;10465;42.686;23.364;2023-04-25T00:46:51;5.03;;;4.18;;
20611;SDS011;10465;42.686;23.364;2023-04-25T00:49:18;4.57;;;3.53;;
20611;SDS011;10465;42.686;23.364;2023-04-25T00:51:43;4.57;;;3.60;;
20611;SDS011;10465;42.686;23.364;2023-04-25T00:54:10;3.67;;;3.20;;
20611;SDS011;10465;42.686;23.364;2023-04-25T00:56:37;3.78;;;3.17;;
20611;SDS011;10465;42.686;23.364;2023-04-25T00:59:03;3.97;;;3.03;;
20611;SDS011;10465;42.686;23.364;2023-04-25T01:01:29;2.55;;;2.35;;
20611;SDS011;10465;42.686;23.364;2023-04-25T01:03:56;3.60;;;2.67;;
20611;SDS011;10465;42.686;23.364;2023-04-25T01:06:22;3.35;;;2.90;;
20611;SDS011;10465;42.686;23.364;2023-04-25T01:08:48;3.20;;;2.60;;
20611;SDS011;10465;42.686;23.364;2023-04-25T01:11:13;6.25;;;3.70;;
20611;SDS011;10465;42.686;23.364;2023-04-25T01:13:39;4.47;;;3.53;;
20611;SDS011;10465;42.686;23.364;2023-04-25T01:16:05;4.90;;;3.33;;
20611;SDS011;10465;42.686;23.364;2023-04-25T01:18:30;5.20;;;3.53;;
20611;SDS011;10465;42.686;23.364;2023-04-25T01:20:56;3.38;;;2.88;;
20611;SDS011;10465;42.686;23.364;2023-04-25T01:23:33;4.03;;;3.42;;
20611;SDS011;10465;42.686;23.364;2023-04-25T01:25:59;6.07;;;3.30;;
20611;SDS011;10465;42.686;23.364;2023-04-25T01:28:26;4.60;;;3.63;;
20611;SDS011;10465;42.686;23.364;2023-04-25T01:30:52;3.72;;;3.10;;
20611;SDS011;10465;42.686;23.364;2023-04-25T01:33:18;3.88;;;3.47;;
20611;SDS011;10465;42.686;23.364;2023-04-25T01:35:46;5.50;;;3.60;;
20611;SDS011;10465;42.686;23.364;2023-04-25T01:38:12;5.32;;;3.40;;
20611;SDS011;10465;42.686;23.364;2023-04-25T01:40:38;4.07;;;3.63;;
20611;SDS011;10465;42.686;23.364;2023-04-25T01:43:05;4.68;;;3.50;;
20611;SDS011;10465;42.686;23.364;2023-04-25T01:45:33;4.13;;;3.58;;
20611;SDS011;10465;42.686;23.364;2023-04-25T01:47:58;3.80;;;3.38;;
20611;SDS011;10465;42.686;23.364;2023-04-25T01:50:24;4.65;;;3.20;;
20611;SDS011;10465;42.686;23.364;2023-04-25T01:52:50;5.53;;;3.20;;
20611;SDS011;10465;42.686;23.364;2023-04-25T01:55:15;5.28;;;3.42;;
20611;SDS011;10465;42.686;23.364;2023-04-25T01:57:41;4.13;;;3.50;;
20611;SDS011;10465;42.686;23.364;2023-04-25T02:00:07;3.78;;;3.00;;
20611;SDS011;10465;42.686;23.364;2023-04-25T02:02:34;4.10;;;3.25;;
20611;SDS011;10465;42.686;23.364;2023-04-25T02:05:00;3.85;;;2.80;;
20611;SDS011;10465;42.686;23.364;2023-04-25T02:07:26;3.50;;;3.20;;
20611;SDS011;10465;42.686;23.364;2023-04-25T02:09:52;4.63;;;3.30;;
20611;SDS011;10465;42.686;23.364;2023-04-25T02:12:17;3.80;;;3.17;;
20611;SDS011;10465;42.686;23.364;2023-04-25T02:14:42;3.95;;;3.22;;
20611;SDS011;10465;42.686;23.364;2023-04-25T02:17:08;3.75;;;3.40;;
20611;SDS011;10465;42.686;23.364;2023-04-25T02:19:33;5.15;;;3.53;;
20611;SDS011;10465;42.686;23.364;2023-04-25T02:21:59;4.13;;;3.10;;
20611;SDS011;10465;42.686;23.364;2023-04-25T02:24:24;3.85;;;3.13;;
20611;SDS011;10465;42.686;23.364;2023-04-25T02:26:49;3.05;;;2.75;;
20611;SDS011;10465;42.686;23.364;2023-04-25T02:29:15;4.82;;;3.03;;
20611;SDS011;10465;42.686;23.364;2023-04-25T02:31:41;4.40;;;3.30;;
20611;SDS011;10465;42.686;23.364;2023-04-25T02:34:07;3.67;;;3.28;;
20611;SDS011;10465;42.686;23.364;2023-04-25T02:36:32;3.63;;;3.10;;
20611;SDS011;10465;42.686;23.364;2023-04-25T02:39:00;5.28;;;3.47;;
20611;SDS011;10465;42.686;23.364;2023-04-25T02:41:26;4.93;;;3.33;;
20611;SDS011;10465;42.686;23.364;2023-04-25T02:43:52;4.35;;;3.25;;
20611;SDS011;10465;42.686;23.364;2023-04-25T02:46:17;3.42;;;3.10;;
20611;SDS011;10465;42.686;23.364;2023-04-25T02:48:43;6.13;;;3.42;;
20611;SDS011;10465;42.686;23.364;2023-04-25T02:51:08;4.05;;;3.30;;
20611;SDS011;10465;42.686;23.364;2023-04-25T02:53:34;3.42;;;2.83;;
20611;SDS011;10465;42.686;23.364;2023-04-25T02:55:59;5.20;;;3.63;;
20611;SDS011;10465;42.686;23.364;2023-04-25T02:58:25;4.03;;;3.63;;
20611;SDS011;10465;42.686;23.364;2023-04-25T03:00:50;5.10;;;3.70;;
20611;SDS011;10465;42.686;23.364;2023-04-25T03:03:16;5.57;;;3.97;;
20611;SDS011;10465;42.686;23.364;2023-04-25T03:05:48;6.70;;;3.55;;
20611;SDS011;10465;42.686;23.364;2023-04-25T03:08:15;6.30;;;4.05;;
20611;SDS011;10465;42.686;23.364;2023-04-25T03:10:41;4.43;;;3.85;;
20611;SDS011;10465;42.686;23.364;2023-04-25T03:13:06;5.47;;;3.83;;
20611;SDS011;10465;42.686;23.364;2023-04-25T03:15:31;4.15;;;3.75;;
20611;SDS011;10465;42.686;23.364;2023-04-25T03:17:57;5.40;;;3.65;;
20611;SDS011;10465;42.686;23.364;2023-04-25T03:20:22;4.38;;;3.90;;
20611;SDS011;10465;42.686;23.364;2023-04-25T03:22:48;7.05;;;4.40;;
20611;SDS011;10465;42.686;23.364;2023-04-25T03:25:13;5.38;;;3.80;;
20611;SDS011;10465;42.686;23.364;2023-04-25T03:27:39;4.60;;;4.10;;
20611;SDS011;10465;42.686;23.364;2023-04-25T03:30:04;6.55;;;4.97;;
20611;SDS011;10465;42.686;23.364;2023-04-25T03:32:31;5.18;;;4.32;;
20611;SDS011;10465;42.686;23.364;2023-04-25T03:34:57;7.53;;;4.65;;
20611;SDS011;10465;42.686;23.364;2023-04-25T03:37:22;6.53;;;4.70;;
20611;SDS011;10465;42.686;23.364;2023-04-25T03:39:47;5.03;;;4.10;;
20611;SDS011;10465;42.686;23.364;2023-04-25T03:42:13;4.72;;;4.18;;
20611;SDS011;10465;42.686;23.364;2023-04-25T03:44:38;5.43;;;4.53;;
20611;SDS011;10465;42.686;23.364;2023-04-25T03:47:04;5.65;;;5.05;;
20611;SDS011;10465;42.686;23.364;2023-04-25T03:49:31;5.57;;;4.45;;
20611;SDS011;10465;42.686;23.364;2023-04-25T03:51:57;6.75;;;5.05;;
20611;SDS011;10465;42.686;23.364;2023-04-25T03:54:23;8.30;;;5.70;;
20611;SDS011;10465;42.686;23.364;2023-04-25T03:56:48;8.13;;;5.80;;
20611;SDS011;10465;42.686;23.364;2023-04-25T03:59:13;7.80;;;6.20;;
20611;SDS011;10465;42.686;23.364;2023-04-25T04:01:39;10.35;;;6.20;;
20611;SDS011;10465;42.686;23.364;2023-04-25T04:04:04;9.13;;;7.13;;
20611;SDS011;10465;42.686;23.364;2023-04-25T04:06:30;7.30;;;6.40;;
20611;SDS011;10465;42.686;23.364;2023-04-25T04:08:55;8.45;;;6.78;;
20611;SDS011;10465;42.686;23.364;2023-04-25T04:11:21;8.75;;;6.72;;
20611;SDS011;10465;42.686;23.364;2023-04-25T04:13:47;12.00;;;7.50;;
20611;SDS011;10465;42.686;23.364;2023-04-25T04:16:12;9.38;;;7.32;;
20611;SDS011;10465;42.686;23.364;2023-04-25T04:18:38;9.88;;;8.18;;
20611;SDS011;10465;42.686;23.364;2023-04-25T04:21:03;10.93;;;9.00;;
20611;SDS011;10465;42.686;23.364;2023-04-25T04:23:29;12.07;;;9.52;;
20611;SDS011;10465;42.686;23.364;2023-04-25T04:25:54;10.20;;;8.60;;
20611;SDS011;10465;42.686;23.364;2023-04-25T04:28:20;11.02;;;8.07;;
20611;SDS011;10465;42.686;23.364;2023-04-25T04:30:46;9.57;;;7.88;;
20611;SDS011;10465;42.686;23.364;2023-04-25T04:33:12;10.55;;;8.18;;
20611;SDS011;10465;42.686;23.364;2023-04-25T04:35:38;13.15;;;8.32;;
20611;SDS011;10465;42.686;23.364;2023-04-25T04:38:04;11.25;;;9.07;;
20611;SDS011;10465;42.686;23.364;2023-04-25T04:40:29;11.45;;;9.65;;
20611;SDS011;10465;42.686;23.364;2023-04-25T04:42:56;10.73;;;8.90;;
20611;SDS011;10465;42.686;23.364;2023-04-25T04:45:22;11.80;;;9.10;;
20611;SDS011;10465;42.686;23.364;2023-04-25T04:47:48;13.43;;;8.93;;
20611;SDS011;10465;42.686;23.364;2023-04-25T04:50:22;11.90;;;8.93;;
20611;SDS011;10465;42.686;23.364;2023-04-25T04:52:47;14.48;;;9.23;;
20611;SDS011;10465;42.686;23.364;2023-04-25T04:55:13;14.75;;;10.18;;
20611;SDS011;10465;42.686;23.364;2023-04-25T04:57:38;11.68;;;9.07;;
20611;SDS011;10465;42.686;23.364;2023-04-25T05:00:04;13.10;;;9.82;;
20611;SDS011;10465;42.686;23.364;2023-04-25T05:02:35;12.25;;;9.13;;
20611;SDS011;10465;42.686;23.364;2023-04-25T05:05:01;13.63;;;10.15;;
20611;SDS011;10465;42.686;23.364;2023-04-25T05:07:26;12.88;;;9.25;;
20611;SDS011;10465;42.686;23.364;2023-04-25T05:09:52;11.65;;;8.98;;
20611;SDS011;10465;42.686;23.364;2023-04-25T05:12:17;13.63;;;8.98;;
20611;SDS011;10465;42.686;23.364;2023-04-25T05:14:42;12.55;;;9.23;;
20611;SDS011;10465;42.686;23.364;2023-04-25T05:17:08;12.23;;;8.88;;
20611;SDS011;10465;42.686;23.364;2023-04-25T05:19:34;11.80;;;9.02;;
20611;SDS011;10465;42.686;23.364;2023-04-25T05:21:59;12.60;;;9.02;;
20611;SDS011;10465;42.686;23.364;2023-04-25T05:24:25;15.57;;;9.82;;
20611;SDS011;10465;42.686;23.364;2023-04-25T05:26:50;14.55;;;9.65;;
20611;SDS011;10465;42.686;23.364;2023-04-25T05:29:16;11.98;;;9.82;;
20611;SDS011;10465;42.686;23.364;2023-04-25T05:31:41;11.27;;;9.32;;
20611;SDS011;10465;42.686;23.364;2023-04-25T05:34:07;11.15;;;9.15;;
20611;SDS011;10465;42.686;23.364;2023-04-25T05:36:32;10.68;;;9.15;;
20611;SDS011;10465;42.686;23.364;2023-04-25T05:38:57;10.88;;;9.35;;
20611;SDS011;10465;42.686;23.364;2023-04-25T05:41:23;12.15;;;8.27;;
20611;SDS011;10465;42.686;23.364;2023-04-25T05:43:48;8.82;;;6.70;;
20611;SDS011;10465;42.686;23.364;2023-04-25T05:46:14;8.50;;;6.55;;
20611;SDS011;10465;42.686;23.364;2023-04-25T05:48:42;8.23;;;6.03;;
20611;SDS011;10465;42.686;23.364;2023-04-25T05:51:07;9.20;;;6.13;;
20611;SDS011;10465;42.686;23.364;2023-04-25T05:53:33;8.23;;;6.00;;
20611;SDS011;10465;42.686;23.364;2023-04-25T05:55:58;7.60;;;5.50;;
20611;SDS011;10465;42.686;23.364;2023-04-25T05:58:24;8.55;;;5.53;;
20611;SDS011;10465;42.686;23.364;2023-04-25T06:00:50;8.82;;;5.90;;
20611;SDS011;10465;42.686;23.364;2023-04-25T06:03:16;7.38;;;5.93;;
20611;SDS011;10465;42.686;23.364;2023-04-25T06:05:42;5.85;;;5.20;;
20611;SDS011;10465;42.686;23.364;2023-04-25T06:08:08;7.38;;;5.20;;
20611;SDS011;10465;42.686;23.364;2023-04-25T06:10:34;6.60;;;5.50;;
20611;SDS011;10465;42.686;23.364;2023-04-25T06:12:59;8.30;;;6.72;;
20611;SDS011;10465;42.686;23.364;2023-04-25T06:15:24;9.38;;;7.03;;
20611;SDS011;10465;42.686;23.364;2023-04-25T06:17:50;9.02;;;7.47;;
20611;SDS011;10465;42.686;23.364;2023-04-25T06:20:15;9.48;;;7.30;;
20611;SDS011;10465;42.686;23.364;2023-04-25T06:22:41;10.75;;;7.35;;
20611;SDS011;10465;42.686;23.364;2023-04-25T06:25:06;9.70;;;6.55;;
20611;SDS011;10465;42.686;23.364;2023-04-25T06:27:33;7.03;;;5.75;;
20611;SDS011;10465;42.686;23.364;2023-04-25T06:29:59;6.90;;;5.20;;
20611;SDS011;10465;42.686;23.364;2023-04-25T06:32:24;9.25;;;5.72;;
20611;SDS011;10465;42.686;23.364;2023-04-25T06:34:51;9.43;;;6.28;;
20611;SDS011;10465;42.686;23.364;2023-04-25T06:37:16;7.15;;;5.43;;
20611;SDS011;10465;42.686;23.364;2023-04-25T06:39:42;7.50;;;5.53;;
20611;SDS011;10465;42.686;23.364;2023-04-25T06:42:07;7.20;;;5.25;;
20611;SDS011;10465;42.686;23.364;2023-04-25T06:44:33;8.50;;;6.20;;
20611;SDS011;10465;42.686;23.364;2023-04-25T06:46:58;7.20;;;5.18;;
20611;SDS011;10465;42.686;23.364;2023-04-25T06:49:24;6.35;;;5.15;;
20611;SDS011;10465;42.686;23.364;2023-04-25T06:51:49;7.15;;;5.18;;
20611;SDS011;10465;42.686;23.364;2023-04-25T06:54:15;5.55;;;4.38;;
20611;SDS011;10465;42.686;23.364;2023-04-25T06:56:40;7.68;;;4.70;;
20611;SDS011;10465;42.686;23.364;2023-04-25T06:59:06;7.45;;;4.88;;
20611;SDS011;10465;42.686;23.364;2023-04-25T07:01:31;7.25;;;5.57;;
20611;SDS011;10465;42.686;23.364;2023-04-25T07:03:57;9.95;;;5.85;;
20611;SDS011;10465;42.686;23.364;2023-04-25T07:06:32;9.05;;;6.72;;
20611;SDS011;10465;42.686;23.364;2023-04-25T07:08:58;8.00;;;6.78;;
20611;SDS011;10465;42.686;23.364;2023-04-25T07:11:23;6.60;;;5.60;;
20611;SDS011;10465;42.686;23.364;2023-04-25T07:13:51;7.20;;;5.90;;
20611;SDS011;10465;42.686;23.364;2023-04-25T07:16:17;6.40;;;5.43;;
20611;SDS011;10465;42.686;23.364;2023-04-25T07:18:42;7.25;;;5.90;;
20611;SDS011;10465;42.686;23.364;2023-04-25T07:21:08;8.85;;;5.93;;
20611;SDS011;10465;42.686;23.364;2023-04-25T07:23:33;6.93;;;5.63;;
20611;SDS011;10465;42.686;23.364;2023-04-25T07:25:59;6.88;;;5.32;;
20611;SDS011;10465;42.686;23.364;2023-04-25T07:28:24;12.23;;;8.38;;
20611;SDS011;10465;42.686;23.364;2023-04-25T07:30:49;8.98;;;7.10;;
20611;SDS011;10465;42.686;23.364;2023-04-25T07:33:15;8.30;;;5.80;;
20611;SDS011;10465;42.686;23.364;2023-04-25T07:35:41;9.93;;;7.05;;
20611;SDS011;10465;42.686;23.364;2023-04-25T07:38:06;8.13;;;6.70;;
20611;SDS011;10465;42.686;23.364;2023-04-25T07:40:32;8.77;;;7.60;;
20611;SDS011;10465;42.686;23.364;2023-04-25T07:42:59;8.88;;;7.05;;
20611;SDS011;10465;42.686;23.364;2023-04-25T07:45:24;12.00;;;7.22;;
20611;SDS011;10465;42.686;23.364;2023-04-25T07:47:50;13.65;;;6.97;;
20611;SDS011;10465;42.686;23.364;2023-04-25T07:50:16;12.70;;;7.28;;
20611;SDS011;10465;42.686;23.364;2023-04-25T07:52:41;8.23;;;6.70;;
20611;SDS011;10465;42.686;23.364;2023-04-25T07:55:07;10.20;;;6.78;;
20611;SDS011;10465;42.686;23.364;2023-04-25T07:57:32;8.05;;;6.43;;
20611;SDS011;10465;42.686;23.364;2023-04-25T07:59:58;10.70;;;6.75;;
20611;SDS011;10465;42.686;23.364;2023-04-25T08:02:23;7.78;;;6.28;;
20611;SDS011;10465;42.686;23.364;2023-04-25T08:04:51;8.82;;;6.18;;
20611;SDS011;10465;42.686;23.364;2023-04-25T08:07:16;8.98;;;5.80;;
20611;SDS011;10465;42.686;23.364;2023-04-25T08:09:41;6.78;;;5.57;;
20611;SDS011;10465;42.686;23.364;2023-04-25T08:12:07;8.32;;;5.40;;
20611;SDS011;10465;42.686;23.364;2023-04-25T08:14:33;9.00;;;5.90;;
20611;SDS011;10465;42.686;23.364;2023-04-25T08:17:03;6.82;;;5.47;;
20611;SDS011;10465;42.686;23.364;2023-04-25T08:19:29;7.88;;;5.30;;
20611;SDS011;10465;42.686;23.364;2023-04-25T08:21:55;6.63;;;5.70;;
20611;SDS011;10465;42.686;23.364;2023-04-25T08:24:22;7.43;;;5.50;;
20611;SDS011;10465;42.686;23.364;2023-04-25T08:26:47;6.78;;;5.20;;
20611;SDS011;10465;42.686;23.364;2023-04-25T08:29:13;10.63;;;6.32;;
20611;SDS011;10465;42.686;23.364;2023-04-25T08:31:39;7.65;;;5.88;;
20611;SDS011;10465;42.686;23.364;2023-04-25T08:34:04;10.90;;;6.65;;
20611;SDS011;10465;42.686;23.364;2023-04-25T08:36:30;9.80;;;6.55;;
20611;SDS011;10465;42.686;23.364;2023-04-25T08:38:56;11.45;;;7.38;;
20611;SDS011;10465;42.686;23.364;2023-04-25T08:41:23;12.30;;;7.13;;
20611;SDS011;10465;42.686;23.364;2023-04-25T08:43:50;7.75;;;6.38;;
20611;SDS011;10465;42.686;23.364;2023-04-25T08:46:17;9.10;;;5.95;;
20611;SDS011;10465;42.686;23.364;2023-04-25T08:48:44;9.73;;;6.82;;
20611;SDS011;10465;42.686;23.364;2023-04-25T08:51:14;11.20;;;8.13;;
20611;SDS011;10465;42.686;23.364;2023-04-25T08:53:46;11.77;;;9.48;;
20611;SDS011;10465;42.686;23.364;2023-04-25T08:56:15;12.25;;;9.18;;
20611;SDS011;10465;42.686;23.364;2023-04-25T08:58:47;11.45;;;9.07;;
20611;SDS011;10465;42.686;23.364;2023-04-25T09:01:14;13.30;;;9.40;;
20611;SDS011;10465;42.686;23.364;2023-04-25T09:03:40;18.08;;;10.50;;
20611;SDS011;10465;42.686;23.364;2023-04-25T09:06:05;14.05;;;9.30;;
20611;SDS011;10465;42.686;23.364;2023-04-25T09:08:32;12.20;;;8.77;;
20611;SDS011;10465;42.686;23.364;2023-04-25T09:10:57;9.68;;;7.55;;
20611;SDS011;10465;42.686;23.364;2023-04-25T09:13:26;9.90;;;7.35;;
20611;SDS011;10465;42.686;23.364;2023-04-25T09:15:56;10.77;;;7.65;;
20611;SDS011;10465;42.686;23.364;2023-04-25T09:20:52;11.02;;;8.00;;
20611;SDS011;10465;42.686;23.364;2023-04-25T09:23:19;8.60;;;7.70;;
20611;SDS011;10465;42.686;23.364;2023-04-25T09:25:49;11.50;;;7.30;;
20611;SDS011;10465;42.686;23.364;2023-04-25T09:28:16;8.52;;;6.10;;
20611;SDS011;10465;42.686;23.364;2023-04-25T09:30:52;6.60;;;5.32;;
20611;SDS011;10465;42.686;23.364;2023-04-25T09:33:20;8.90;;;5.82;;
20611;SDS011;10465;42.686;23.364;2023-04-25T09:35:45;8.63;;;6.28;;
20611;SDS011;10465;42.686;23.364;2023-04-25T09:38:11;9.88;;;6.70;;
20611;SDS011;10465;42.686;23.364;2023-04-25T09:40:41;6.78;;;5.97;;
20611;SDS011;10465;42.686;23.364;2023-04-25T09:45:47;12.88;;;10.20;;
20611;SDS011;10465;42.686;23.364;2023-04-25T09:48:19;6.95;;;5.50;;
20611;SDS011;10465;42.686;23.364;2023-04-25T09:51:05;6.35;;;5.65;;
20611;SDS011;10465;42.686;23.364;2023-04-25T09:53:42;6.35;;;4.72;;
20611;SDS011;10465;42.686;23.364;2023-04-25T09:56:09;5.93;;;4.32;;
20611;SDS011;10465;42.686;23.364;2023-04-25T09:58:37;6.60;;;4.25;;
20611;SDS011;10465;42.686;23.364;2023-04-25T10:01:05;5.93;;;5.18;;
20611;SDS011;10465;42.686;23.364;2023-04-25T10:03:33;9.73;;;5.00;;
20611;SDS011;10465;42.686;23.364;2023-04-25T10:06:00;8.90;;;5.40;;
20611;SDS011;10465;42.686;23.364;2023-04-25T10:08:32;6.25;;;4.57;;
20611;SDS011;10465;42.686;23.364;2023-04-25T10:11:00;6.30;;;4.70;;
20611;SDS011;10465;42.686;23.364;2023-04-25T10:13:28;6.35;;;4.75;;
20611;SDS011;10465;42.686;23.364;2023-04-25T10:16:00;5.63;;;3.90;;
20611;SDS011;10465;42.686;23.364;2023-04-25T10:18:28;6.00;;;4.20;;
20611;SDS011;10465;42.686;23.364;2023-04-25T10:20:55;6.20;;;3.97;;
20611;SDS011;10465;42.686;23.364;2023-04-25T10:23:23;6.78;;;4.63;;
20611;SDS011;10465;42.686;23.364;2023-04-25T10:25:50;10.48;;;5.40;;
20611;SDS011;10465;42.686;23.364;2023-04-25T10:28:17;6.95;;;5.28;;
20611;SDS011;10465;42.686;23.364;2023-04-25T10:31:04;5.90;;;3.60;;
20611;SDS011;10465;42.686;23.364;2023-04-25T10:33:33;5.72;;;4.57;;
20611;SDS011;10465;42.686;23.364;2023-04-25T10:36:12;5.30;;;4.03;;
20611;SDS011;10465;42.686;23.364;2023-04-25T10:38:39;6.45;;;4.50;;
20611;SDS011;10465;42.686;23.364;2023-04-25T10:41:08;5.03;;;4.53;;
20611;SDS011;10465;42.686;23.364;2023-04-25T10:43:38;6.53;;;5.10;;
20611;SDS011;10465;42.686;23.364;2023-04-25T10:46:18;3.80;;;2.17;;
20611;SDS011;10465;42.686;23.364;2023-04-25T10:48:55;2.40;;;1.92;;
20611;SDS011;10465;42.686;23.364;2023-04-25T10:51:22;3.03;;;1.88;;
20611;SDS011;10465;42.686;23.364;2023-04-25T10:54:02;7.15;;;2.38;;
20611;SDS011;10465;42.686;23.364;2023-04-25T10:56:38;2.60;;;2.03;;
20611;SDS011;10465;42.686;23.364;2023-04-25T10:59:12;2.05;;;1.83;;
20611;SDS011;10465;42.686;23.364;2023-04-25T11:01:43;5.03;;;2.13;;
20611;SDS011;10465;42.686;23.364;2023-04-25T11:09:34;3.35;;;2.20;;
20611;SDS011;10465;42.686;23.364;2023-04-25T11:12:04;3.75;;;2.10;;
20611;SDS011;10465;42.686;23.364;2023-04-25T11:14:31;5.10;;;1.88;;
20611;SDS011;10465;42.686;23.364;2023-04-25T11:16:57;8.35;;;2.95;;
20611;SDS011;10465;42.686;23.364;2023-04-25T11:19:26;5.50;;;2.00;;
20611;SDS011;10465;42.686;23.364;2023-04-25T11:21:55;3.25;;;1.70;;
20611;SDS011;10465;42.686;23.364;2023-04-25T11:24:28;4.05;;;2.10;;
20611;SDS011;10465;42.686;23.364;2023-04-25T11:26:59;2.72;;;1.80;;
20611;SDS011;10465;42.686;23.364;2023-04-25T11:29:27;1.50;;;1.00;;
20611;SDS011;10465;42.686;23.364;2023-04-25T11:31:54;1.52;;;1.08;;
20611;SDS011;10465;42.686;23.364;2023-04-25T11:34:23;1.58;;;1.27;;
20611;SDS011;10465;42.686;23.364;2023-04-25T11:36:50;4.60;;;1.30;;
20611;SDS011;10465;42.686;23.364;2023-04-25T11:39:17;2.53;;;1.20;;
20611;SDS011;10465;42.686;23.364;2023-04-25T11:41:43;3.90;;;2.25;;
20611;SDS011;10465;42.686;23.364;2023-04-25T11:44:08;4.97;;;2.28;;
20611;SDS011;10465;42.686;23.364;2023-04-25T11:46:34;2.53;;;1.83;;
20611;SDS011;10465;42.686;23.364;2023-04-25T11:49:00;1.90;;;1.40;;
20611;SDS011;10465;42.686;23.364;2023-04-25T11:51:25;3.40;;;1.20;;
20611;SDS011;10465;42.686;23.364;2023-04-25T11:53:51;1.20;;;0.98;;
20611;SDS011;10465;42.686;23.364;2023-04-25T11:56:16;1.10;;;0.98;;
20611;SDS011;10465;42.686;23.364;2023-04-25T11:58:58;0.90;;;0.70;;
20611;SDS011;10465;42.686;23.364;2023-04-25T12:01:38;3.10;;;1.10;;
20611;SDS011;10465;42.686;23.364;2023-04-25T12:04:12;3.45;;;1.05;;
20611;SDS011;10465;42.686;23.364;2023-04-25T12:06:40;2.95;;;1.23;;
20611;SDS011;10465;42.686;23.364;2023-04-25T12:09:10;3.72;;;1.30;;
20611;SDS011;10465;42.686;23.364;2023-04-25T12:12:10;1.63;;;0.77;;
20611;SDS011;10465;42.686;23.364;2023-04-25T12:14:31;3.20;;;1.00;;
20611;SDS011;10465;42.686;23.364;2023-04-25T12:17:00;1.75;;;1.33;;
20611;SDS011;10465;42.686;23.364;2023-04-25T12:19:31;0.70;;;0.60;;
20611;SDS011;10465;42.686;23.364;2023-04-25T12:21:58;0.80;;;0.63;;
20611;SDS011;10465;42.686;23.364;2023-04-25T12:24:26;1.20;;;1.00;;
20611;SDS011;10465;42.686;23.364;2023-04-25T12:26:59;3.42;;;0.70;;
20611;SDS011;10465;42.686;23.364;2023-04-25T12:29:28;0.70;;;0.63;;
20611;SDS011;10465;42.686;23.364;2023-04-25T12:31:55;0.70;;;0.70;;
20611;SDS011;10465;42.686;23.364;2023-04-25T12:34:21;0.68;;;0.57;;
20611;SDS011;10465;42.686;23.364;2023-04-25T12:36:48;1.10;;;1.02;;
20611;SDS011;10465;42.686;23.364;2023-04-25T12:39:17;1.55;;;1.08;;
20611;SDS011;10465;42.686;23.364;2023-04-25T12:41:45;3.58;;;1.50;;
20611;SDS011;10465;42.686;23.364;2023-04-25T12:44:11;4.88;;;1.73;;
20611;SDS011;10465;42.686;23.364;2023-04-25T12:46:37;7.72;;;1.60;;
20611;SDS011;10465;42.686;23.364;2023-04-25T12:49:03;4.25;;;1.48;;
20611;SDS011;10465;42.686;23.364;2023-04-25T12:51:29;2.20;;;1.30;;
20611;SDS011;10465;42.686;23.364;2023-04-25T12:53:57;3.10;;;1.60;;
20611;SDS011;10465;42.686;23.364;2023-04-25T12:56:23;4.03;;;1.83;;
20611;SDS011;10465;42.686;23.364;2023-04-25T12:58:49;2.75;;;1.40;;
20611;SDS011;10465;42.686;23.364;2023-04-25T13:01:15;4.97;;;2.25;;
20611;SDS011;10465;42.686;23.364;2023-04-25T13:03:40;2.53;;;1.90;;
20611;SDS011;10465;42.686;23.364;2023-04-25T13:06:06;5.03;;;1.88;;
20611;SDS011;10465;42.686;23.364;2023-04-25T13:08:32;2.78;;;1.75;;
20611;SDS011;10465;42.686;23.364;2023-04-25T13:10:58;5.18;;;2.13;;
20611;SDS011;10465;42.686;23.364;2023-04-25T13:13:23;3.42;;;1.90;;
20611;SDS011;10465;42.686;23.364;2023-04-25T13:15:48;6.05;;;2.30;;
20611;SDS011;10465;42.686;23.364;2023-04-25T13:18:14;3.05;;;1.80;;
20611;SDS011;10465;42.686;23.364;2023-04-25T13:20:40;2.92;;;1.52;;
20611;SDS011;10465;42.686;23.364;2023-04-25T13:23:06;5.93;;;1.63;;
20611;SDS011;10465;42.686;23.364;2023-04-25T13:25:31;3.35;;;1.77;;
20611;SDS011;10465;42.686;23.364;2023-04-25T13:27:56;2.85;;;1.65;;
20611;SDS011;10465;42.686;23.364;2023-04-25T13:30:22;4.97;;;1.67;;
20611;SDS011;10465;42.686;23.364;2023-04-25T13:32:47;3.55;;;2.00;;
20611;SDS011;10465;42.686;23.364;2023-04-25T13:35:13;2.75;;;1.50;;
20611;SDS011;10465;42.686;23.364;2023-04-25T13:37:39;5.45;;;2.13;;
20611;SDS011;10465;42.686;23.364;2023-04-25T13:40:06;2.80;;;1.80;;
20611;SDS011;10465;42.686;23.364;2023-04-25T13:42:34;3.83;;;1.85;;
20611;SDS011;10465;42.686;23.364;2023-04-25T13:45:00;4.00;;;1.95;;
20611;SDS011;10465;42.686;23.364;2023-04-25T13:47:26;4.70;;;1.92;;
20611;SDS011;10465;42.686;23.364;2023-04-25T13:49:52;4.40;;;2.17;;
20611;SDS011;10465;42.686;23.364;2023-04-25T13:52:19;5.53;;;2.25;;
20611;SDS011;10465;42.686;23.364;2023-04-25T13:54:44;5.18;;;1.90;;
20611;SDS011;10465;42.686;23.364;2023-04-25T13:57:10;3.53;;;1.85;;
20611;SDS011;10465;42.686;23.364;2023-04-25T13:59:36;3.03;;;1.90;;
20611;SDS011;10465;42.686;23.364;2023-04-25T14:02:02;3.20;;;2.17;;
20611;SDS011;10465;42.686;23.364;2023-04-25T14:04:27;5.75;;;2.17;;
20611;SDS011;10465;42.686;23.364;2023-04-25T14:06:53;3.80;;;2.03;;
20611;SDS011;10465;42.686;23.364;2023-04-25T14:09:19;3.88;;;2.00;;
20611;SDS011;10465;42.686;23.364;2023-04-25T14:11:50;3.63;;;1.42;;
20611;SDS011;10465;42.686;23.364;2023-04-25T14:14:19;3.92;;;1.90;;
20611;SDS011;10465;42.686;23.364;2023-04-25T14:16:45;5.57;;;1.73;;
20611;SDS011;10465;42.686;23.364;2023-04-25T14:19:13;3.55;;;1.63;;
20611;SDS011;10465;42.686;23.364;2023-04-25T14:21:39;1.50;;;1.40;;
20611;SDS011;10465;42.686;23.364;2023-04-25T14:24:04;2.55;;;1.77;;
20611;SDS011;10465;42.686;23.364;2023-04-25T14:26:30;2.75;;;1.55;;
20611;SDS011;10465;42.686;23.364;2023-04-25T14:28:55;2.10;;;1.33;;
20611;SDS011;10465;42.686;23.364;2023-04-25T14:31:20;2.70;;;1.60;;
20611;SDS011;10465;42.686;23.364;2023-04-25T14:33:46;4.45;;;1.15;;
20611;SDS011;10465;42.686;23.364;2023-04-25T14:36:12;2.00;;;1.10;;
20611;SDS011;10465;42.686;23.364;2023-04-25T14:38:37;1.25;;;1.13;;
20611;SDS011;10465;42.686;23.364;2023-04-25T14:41:03;1.45;;;1.20;;